createdAt,value
2018-04-17T00:00:07.178Z,5.65
2018-04-17T00:02:35.108Z,3.95
2018-04-17T00:05:03.364Z,8.27
2018-04-17T00:07:31.458Z,11.27
2018-04-17T00:09:59.663Z,8.27
2018-04-17T00:12:27.744Z,10.20
2018-04-17T00:14:55.944Z,10.40
2018-04-17T00:17:24.138Z,8.05
2018-04-17T00:19:52.319Z,10.90
2018-04-17T00:22:20.420Z,14.68
2018-04-17T00:24:48.717Z,12.07
2018-04-17T00:27:16.897Z,15.95
2018-04-17T00:29:45.197Z,13.57
2018-04-17T00:32:13.497Z,14.00
2018-04-17T00:34:41.899Z,13.32
2018-04-17T00:37:10.195Z,17.42
2018-04-17T00:39:38.484Z,17.70
2018-04-17T00:42:06.682Z,14.70
2018-04-17T00:44:34.800Z,16.12
2018-04-17T00:47:02.763Z,20.02
2018-04-17T00:49:30.960Z,14.38
2018-04-17T00:51:59.059Z,9.20
2018-04-17T00:54:27.245Z,20.33
2018-04-17T00:56:55.345Z,13.68
2018-04-17T00:59:23.547Z,10.70
2018-04-17T01:01:51.729Z,16.90
2018-04-17T01:04:20.025Z,17.48
2018-04-17T01:06:48.324Z,23.70
2018-04-17T01:09:16.719Z,15.70
2018-04-17T01:11:45.019Z,12.88
2018-04-17T01:14:13.324Z,11.60
2018-04-17T01:16:41.608Z,18.08
2018-04-17T01:19:09.920Z,9.02
2018-04-17T01:21:38.000Z,14.30
2018-04-17T01:24:06.206Z,14.48
2018-04-17T01:26:34.292Z,16.75
2018-04-17T01:29:02.324Z,12.85
2018-04-17T01:31:30.470Z,14.13
2018-04-17T01:33:58.661Z,17.87
2018-04-17T01:36:26.857Z,9.18
2018-04-17T01:38:54.945Z,19.73
2018-04-17T01:41:23.145Z,7.95
2018-04-17T01:43:51.240Z,18.45
2018-04-17T01:46:19.540Z,20.65
2018-04-17T01:48:47.737Z,20.52
2018-04-17T01:51:16.019Z,19.50
2018-04-17T01:53:44.320Z,23.52
2018-04-17T01:56:12.690Z,18.08
2018-04-17T01:58:40.930Z,16.20
2018-04-17T02:01:10.043Z,21.05
2018-04-17T02:03:38.244Z,20.50
2018-04-17T02:06:06.425Z,17.10
2018-04-17T02:08:34.624Z,23.42
2018-04-17T02:11:02.757Z,14.55
2018-04-17T02:13:31.002Z,13.18
2018-04-17T02:15:59.214Z,20.35
2018-04-17T02:18:27.305Z,20.30
2018-04-17T02:20:55.483Z,14.52
2018-04-17T02:23:23.588Z,16.73
2018-04-17T02:25:51.983Z,13.55
2018-04-17T02:28:20.284Z,14.55
2018-04-17T02:30:48.581Z,16.12
2018-04-17T02:33:16.773Z,15.82
2018-04-17T02:35:45.062Z,17.08
2018-04-17T02:38:13.264Z,16.20
2018-04-17T02:40:41.563Z,14.63
2018-04-17T02:43:09.765Z,13.32
2018-04-17T02:45:37.952Z,15.13
2018-04-17T02:48:06.044Z,17.52
2018-04-17T02:50:34.225Z,15.75
2018-04-17T02:53:02.325Z,8.82
2018-04-17T02:55:30.525Z,12.85
2018-04-17T02:57:58.605Z,7.72
2018-04-17T03:00:26.801Z,9.48
2018-04-17T03:02:55.004Z,7.65
2018-04-17T03:05:23.283Z,16.95
2018-04-17T03:07:51.605Z,7.95
2018-04-17T03:10:19.881Z,11.65
2018-04-17T03:12:48.182Z,8.93
2018-04-17T03:15:16.483Z,10.52
2018-04-17T03:17:44.781Z,11.65
2018-04-17T03:20:13.080Z,6.90
2018-04-17T03:22:41.270Z,8.50
2018-04-17T03:25:09.462Z,7.70
2018-04-17T03:27:37.649Z,12.85
2018-04-17T03:30:05.863Z,8.65
2018-04-17T03:32:33.938Z,7.90
2018-04-17T03:35:02.038Z,10.77
2018-04-17T03:37:30.128Z,6.47
2018-04-17T03:39:58.323Z,9.80
2018-04-17T03:42:26.521Z,12.27
2018-04-17T03:44:54.712Z,7.53
2018-04-17T03:47:22.921Z,16.00
2018-04-17T03:49:51.187Z,7.97
2018-04-17T03:52:19.498Z,12.27
2018-04-17T03:54:47.797Z,12.90
2018-04-17T03:57:15.977Z,6.97
2018-04-17T03:59:44.284Z,7.97
2018-04-17T04:02:12.480Z,10.13
2018-04-17T04:04:40.680Z,11.57
2018-04-17T04:07:08.862Z,7.40
2018-04-17T04:09:36.958Z,7.93
2018-04-17T04:12:05.159Z,7.18
2018-04-17T04:14:33.343Z,8.27
2018-04-17T04:17:01.537Z,6.57
2018-04-17T04:19:29.543Z,10.70
2018-04-17T04:21:57.822Z,10.23
2018-04-17T04:24:25.921Z,9.55
2018-04-17T04:26:54.311Z,13.05
2018-04-17T04:29:22.627Z,10.68
2018-04-17T04:31:50.919Z,14.02
2018-04-17T04:34:19.220Z,5.72
2018-04-17T04:36:47.603Z,11.82
2018-04-17T04:39:15.899Z,5.72
2018-04-17T04:41:44.004Z,5.05
2018-04-17T04:44:12.299Z,6.45
2018-04-17T04:46:40.479Z,6.75
2018-04-17T04:49:08.580Z,8.07
2018-04-17T04:51:36.785Z,7.85
2018-04-17T04:54:04.864Z,14.13
2018-04-17T04:56:33.063Z,9.80
2018-04-17T04:59:01.259Z,11.63
2018-04-17T05:01:29.339Z,8.13
2018-04-17T05:03:57.433Z,9.27
2018-04-17T05:06:25.736Z,6.53
2018-04-17T05:08:54.026Z,7.72
2018-04-17T05:11:22.332Z,10.05
2018-04-17T05:13:50.727Z,8.98
2018-04-17T05:16:19.022Z,7.43
2018-04-17T05:18:47.320Z,8.45
2018-04-17T05:21:15.557Z,5.93
2018-04-17T05:23:43.728Z,5.20
2018-04-17T05:26:11.900Z,7.35
2018-04-17T05:28:40.000Z,6.95
2018-04-17T05:31:08.200Z,7.65
2018-04-17T05:33:36.287Z,6.97
2018-04-17T05:36:04.485Z,7.35
2018-04-17T05:38:32.678Z,8.07
2018-04-17T05:41:00.866Z,6.28
2018-04-17T05:43:28.814Z,10.02
2018-04-17T05:45:57.047Z,8.05
2018-04-17T05:48:25.346Z,7.95
2018-04-17T05:50:53.639Z,7.78
2018-04-17T05:53:21.934Z,10.13
2018-04-17T05:55:50.299Z,15.27
2018-04-17T05:58:18.649Z,12.52
2018-04-17T06:00:46.724Z,10.90
2018-04-17T06:03:14.931Z,9.30
2018-04-17T06:05:43.018Z,12.63
2018-04-17T06:08:11.106Z,10.65
2018-04-17T06:10:39.209Z,12.55
2018-04-17T06:13:07.286Z,13.38
2018-04-17T06:15:35.386Z,8.15
2018-04-17T06:18:03.580Z,10.88
2018-04-17T06:20:31.665Z,11.10
2018-04-17T06:22:59.860Z,8.77
2018-04-17T06:25:28.160Z,12.68
2018-04-17T06:27:56.351Z,14.27
2018-04-17T06:30:24.661Z,11.98
2018-04-17T06:32:52.957Z,12.18
2018-04-17T06:35:21.241Z,10.82
2018-04-17T06:37:49.543Z,13.13
2018-04-17T06:40:17.638Z,10.95
2018-04-17T06:42:45.822Z,16.00
2018-04-17T06:45:13.919Z,14.50
2018-04-17T06:47:42.180Z,16.60
2018-04-17T06:50:10.424Z,10.85
2018-04-17T06:52:38.747Z,12.13
2018-04-17T06:55:07.011Z,11.75
2018-04-17T06:57:35.207Z,15.23
2018-04-17T07:00:03.282Z,15.65
2018-04-17T07:02:31.480Z,14.15
2018-04-17T07:04:59.813Z,9.55
2018-04-17T07:07:28.082Z,7.93
2018-04-17T07:09:56.059Z,11.45
2018-04-17T07:12:24.366Z,9.77
2018-04-17T07:14:52.661Z,10.10
2018-04-17T07:17:20.858Z,10.05
2018-04-17T07:19:49.866Z,14.50
2018-04-17T07:22:18.057Z,26.15
2018-04-17T07:24:46.160Z,13.00
2018-04-17T07:27:14.347Z,10.27
2018-04-17T07:29:42.447Z,8.32
2018-04-17T07:32:10.638Z,11.32
2018-04-17T07:34:38.762Z,8.80
2018-04-17T07:37:07.023Z,11.12
2018-04-17T07:39:35.222Z,11.43
2018-04-17T07:42:03.521Z,7.80
2018-04-17T07:44:31.856Z,7.80
2018-04-17T07:47:00.106Z,9.07
2018-04-17T07:49:28.200Z,12.07
2018-04-17T07:51:56.338Z,6.53
2018-04-17T07:54:24.378Z,5.15
2018-04-17T07:56:52.578Z,9.27
2018-04-17T07:59:20.680Z,7.80
2018-04-17T08:01:48.861Z,10.32
2018-04-17T08:04:16.964Z,6.30
2018-04-17T08:06:45.158Z,8.80
2018-04-17T08:09:13.454Z,8.75
2018-04-17T08:11:41.745Z,7.87
2018-04-17T08:14:10.041Z,6.55
2018-04-17T08:16:38.335Z,11.18
2018-04-17T08:19:06.646Z,9.35
2018-04-17T08:21:36.040Z,14.23
2018-04-17T08:24:04.348Z,9.38
2018-04-17T08:26:32.450Z,7.32
2018-04-17T08:29:00.642Z,9.40
2018-04-17T08:31:28.663Z,9.93
2018-04-17T08:33:56.762Z,8.43
2018-04-17T08:36:25.018Z,6.30
2018-04-17T08:38:53.217Z,11.75
2018-04-17T08:41:21.300Z,9.05
2018-04-17T08:43:49.497Z,6.18
2018-04-17T08:46:17.579Z,11.70
2018-04-17T08:48:45.794Z,6.97
2018-04-17T08:51:13.877Z,7.93
2018-04-17T08:53:42.064Z,6.28
2018-04-17T08:56:10.257Z,7.82
2018-04-17T08:58:38.472Z,7.75
2018-04-17T09:01:06.659Z,5.15
2018-04-17T09:03:34.956Z,10.13
2018-04-17T09:06:03.249Z,8.05
2018-04-17T09:08:31.639Z,8.47
2018-04-17T09:10:59.939Z,4.20
2018-04-17T09:13:28.337Z,9.30
2018-04-17T09:15:56.387Z,9.03
2018-04-17T09:18:24.522Z,14.30
2018-04-17T09:20:52.722Z,14.30
2018-04-17T09:23:20.922Z,8.33
2018-04-17T09:25:49.111Z,5.20
2018-04-17T09:28:17.301Z,11.60
2018-04-17T09:30:45.402Z,11.47
2018-04-17T09:33:13.634Z,8.13
2018-04-17T09:35:41.780Z,9.10
2018-04-17T09:38:09.970Z,8.50
2018-04-17T09:40:38.065Z,11.97
2018-04-17T09:43:06.262Z,8.17
2018-04-17T09:45:34.469Z,10.00
2018-04-17T09:48:02.762Z,12.60
2018-04-17T09:50:31.015Z,8.90
2018-04-17T09:52:59.341Z,12.85
2018-04-17T09:55:27.654Z,6.22
2018-04-17T09:57:55.785Z,12.27
2018-04-17T10:00:23.833Z,8.70
2018-04-17T10:02:52.028Z,10.63
2018-04-17T10:05:20.233Z,12.43
2018-04-17T10:07:48.521Z,10.45
2018-04-17T10:10:16.618Z,12.93
2018-04-17T10:12:44.797Z,7.90
2018-04-17T10:15:13.005Z,15.10
2018-04-17T10:17:42.013Z,14.23
2018-04-17T10:20:10.208Z,11.00
2018-04-17T10:22:38.324Z,8.30
2018-04-17T10:25:06.805Z,5.33
2018-04-17T10:27:35.097Z,6.77
2018-04-17T10:30:03.390Z,6.33
2018-04-17T10:32:31.591Z,9.60
2018-04-17T10:34:59.884Z,7.03
2018-04-17T10:37:28.179Z,3.53
2018-04-17T10:39:56.309Z,8.33
2018-04-17T10:42:24.353Z,6.18
2018-04-17T10:44:52.574Z,5.03
2018-04-17T10:47:20.660Z,5.93
2018-04-17T10:49:48.851Z,4.22
2018-04-17T10:52:17.038Z,6.85
2018-04-17T10:54:45.231Z,12.05
2018-04-17T10:57:13.325Z,4.45
2018-04-17T10:59:41.571Z,5.47
2018-04-17T11:02:09.717Z,9.05
2018-04-17T11:04:38.017Z,4.60
2018-04-17T11:07:06.204Z,2.93
2018-04-17T11:09:34.308Z,7.03
2018-04-17T11:12:02.391Z,3.12
2018-04-17T11:14:30.677Z,2.92
2018-04-17T11:16:58.777Z,2.20
2018-04-17T11:19:26.977Z,3.80
2018-04-17T11:21:55.180Z,3.50
2018-04-17T11:24:23.259Z,2.93
2018-04-17T11:26:51.460Z,6.93
2018-04-17T11:29:19.642Z,2.70
2018-04-17T11:31:47.746Z,9.23
2018-04-17T11:34:15.925Z,3.28
2018-04-17T11:36:44.124Z,2.12
2018-04-17T11:39:12.326Z,5.28
2018-04-17T11:41:40.625Z,2.30
2018-04-17T11:44:08.820Z,4.10
2018-04-17T11:46:37.126Z,3.67
2018-04-17T11:49:05.403Z,3.70
2018-04-17T11:51:33.710Z,5.65
2018-04-17T11:54:02.012Z,4.10
2018-04-17T11:56:30.209Z,2.50
2018-04-17T11:58:58.389Z,3.78
2018-04-17T12:01:26.488Z,2.47
2018-04-17T12:03:54.583Z,2.00
2018-04-17T12:06:22.862Z,3.33
2018-04-17T12:08:50.961Z,3.95
2018-04-17T12:11:19.063Z,2.65
2018-04-17T12:13:47.245Z,3.00
2018-04-17T12:16:15.442Z,5.03
2018-04-17T12:18:43.542Z,3.58
2018-04-17T12:21:11.840Z,4.22
2018-04-17T12:23:40.121Z,2.67
2018-04-17T12:26:08.228Z,4.18
2018-04-17T12:28:36.324Z,5.65
2018-04-17T12:31:04.616Z,4.70
2018-04-17T12:33:32.905Z,3.97
2018-04-17T12:36:01.095Z,3.08
2018-04-17T12:38:29.282Z,6.20
2018-04-17T12:40:57.676Z,6.37
2018-04-17T12:43:25.987Z,4.60
2018-04-17T12:45:54.195Z,7.33
2018-04-17T12:48:22.376Z,4.17
2018-04-17T12:50:50.462Z,2.77
2018-04-17T12:53:18.555Z,2.53
2018-04-17T12:55:46.655Z,3.30
2018-04-17T12:58:14.962Z,3.20
2018-04-17T13:00:43.142Z,5.90
2018-04-17T13:03:11.328Z,3.00
2018-04-17T13:05:39.549Z,8.03
2018-04-17T13:08:07.741Z,3.80
2018-04-17T13:10:35.922Z,4.97
2018-04-17T13:13:04.123Z,6.77
2018-04-17T13:15:32.232Z,2.97
2018-04-17T13:18:00.625Z,5.83
2018-04-17T13:20:28.902Z,3.40
2018-04-17T13:22:57.087Z,6.53
2018-04-17T13:25:25.203Z,3.57
2018-04-17T13:27:53.602Z,3.90
2018-04-17T13:30:21.779Z,3.80
2018-04-17T13:32:49.884Z,3.60
2018-04-17T13:35:18.068Z,4.90
2018-04-17T13:37:46.360Z,6.67
2018-04-17T13:40:14.561Z,3.40
2018-04-17T13:42:42.756Z,3.33
2018-04-17T13:45:11.070Z,2.27
2018-04-17T13:47:39.453Z,5.90
2018-04-17T13:50:07.754Z,3.83
2018-04-17T13:52:35.851Z,6.90
2018-04-17T13:55:04.138Z,3.80
2018-04-17T13:57:32.340Z,4.00
2018-04-17T14:00:00.518Z,4.93
2018-04-17T14:02:28.739Z,3.73
2018-04-17T14:04:56.920Z,4.30
2018-04-17T14:07:25.102Z,2.60
2018-04-17T14:09:53.354Z,3.80
2018-04-17T14:12:21.402Z,2.00
2018-04-17T14:14:49.585Z,2.63
2018-04-17T14:17:17.655Z,7.13
2018-04-17T14:19:45.886Z,5.30
2018-04-17T14:22:14.166Z,4.10
2018-04-17T14:24:42.467Z,3.97
2018-04-17T14:27:10.772Z,3.37
2018-04-17T14:29:39.067Z,3.00
2018-04-17T14:32:07.263Z,3.67
2018-04-17T14:34:35.558Z,4.10
2018-04-17T14:37:04.467Z,2.83
2018-04-17T14:39:32.575Z,2.27
2018-04-17T14:42:00.862Z,3.40
2018-04-17T14:44:30.388Z,3.30
2018-04-17T14:46:58.684Z,3.73
2018-04-17T14:49:26.774Z,5.03
2018-04-17T14:51:54.868Z,3.10
2018-04-17T14:54:23.111Z,2.03
2018-04-17T14:56:51.258Z,2.47
2018-04-17T14:59:19.653Z,3.37
2018-04-17T15:01:47.942Z,1.80
2018-04-17T15:04:16.133Z,2.80
2018-04-17T15:06:44.445Z,2.03
2018-04-17T15:09:12.724Z,4.13
2018-04-17T15:11:41.036Z,1.93
2018-04-17T15:14:09.431Z,1.80
2018-04-17T15:16:37.516Z,2.53
2018-04-17T15:19:05.823Z,3.70
2018-04-17T15:21:34.109Z,2.13
2018-04-17T15:24:02.203Z,4.90
2018-04-17T15:26:30.293Z,2.50
2018-04-17T15:28:58.488Z,2.70
2018-04-17T15:31:26.680Z,4.67
2018-04-17T15:33:54.783Z,2.93
2018-04-17T15:36:22.764Z,4.50
2018-04-17T15:38:50.963Z,3.30
2018-04-17T15:41:19.059Z,2.97
2018-04-17T15:43:47.245Z,2.50
2018-04-17T15:46:15.547Z,2.53
2018-04-17T15:48:43.943Z,3.20
2018-04-17T15:51:12.240Z,5.20
2018-04-17T15:53:40.441Z,3.70
2018-04-17T15:56:08.726Z,2.67
2018-04-17T15:58:37.047Z,4.03
2018-04-17T16:01:05.219Z,8.83
2018-04-17T16:03:33.490Z,3.73
2018-04-17T16:06:01.713Z,2.77
2018-04-17T16:08:29.826Z,6.97
2018-04-17T16:10:57.999Z,6.90
2018-04-17T16:13:26.104Z,4.63
2018-04-17T16:15:54.282Z,3.00
2018-04-17T16:18:22.478Z,6.43
2018-04-17T16:20:50.523Z,6.17
2018-04-17T16:23:18.882Z,14.27
2018-04-17T16:25:47.064Z,2.60
2018-04-17T16:28:15.267Z,3.97
2018-04-17T16:30:43.502Z,4.07
2018-04-17T16:33:11.753Z,3.20
2018-04-17T16:35:39.953Z,3.35
2018-04-17T16:38:08.038Z,3.87
2018-04-17T16:40:36.228Z,7.95
2018-04-17T16:43:04.332Z,4.60
2018-04-17T16:45:32.528Z,5.28
2018-04-17T16:48:00.598Z,3.95
2018-04-17T16:50:28.818Z,4.93
2018-04-17T16:52:56.902Z,7.18
2018-04-17T16:55:24.998Z,4.85
2018-04-17T16:57:53.186Z,5.12
2018-04-17T17:00:21.378Z,3.58
2018-04-17T17:02:49.498Z,5.22
2018-04-17T17:05:17.867Z,5.10
2018-04-17T17:07:46.165Z,3.60
2018-04-17T17:10:14.268Z,3.35
2018-04-17T17:12:42.554Z,3.40
2018-04-17T17:15:10.743Z,8.13
2018-04-17T17:17:38.944Z,5.45
2018-04-17T17:20:07.028Z,3.45
2018-04-17T17:22:35.227Z,6.28
2018-04-17T17:25:03.328Z,6.45
2018-04-17T17:27:31.509Z,8.38
2018-04-17T17:29:59.597Z,4.95
2018-04-17T17:32:27.644Z,4.50
2018-04-17T17:34:55.782Z,6.72
2018-04-17T17:37:24.097Z,5.82
2018-04-17T17:39:52.289Z,8.43
2018-04-17T17:42:20.469Z,4.47
2018-04-17T17:44:48.570Z,4.12
2018-04-17T17:47:16.670Z,3.92
2018-04-17T17:49:44.629Z,6.53
2018-04-17T17:52:12.749Z,6.78
2018-04-17T17:54:40.930Z,4.25
2018-04-17T17:57:09.128Z,5.50
2018-04-17T17:59:37.230Z,4.70
2018-04-17T18:02:05.314Z,6.40
2018-04-17T18:04:33.412Z,5.87
2018-04-17T18:07:01.523Z,5.05
2018-04-17T18:09:29.590Z,10.90
2018-04-17T18:11:57.789Z,7.18
2018-04-17T18:14:25.990Z,7.43
2018-04-17T18:16:54.169Z,5.47
2018-04-17T18:19:22.270Z,5.78
2018-04-17T18:21:50.469Z,4.82
2018-04-17T18:24:19.569Z,10.15
2018-04-17T18:26:47.768Z,6.50
2018-04-17T18:29:15.872Z,6.82
2018-04-17T18:31:44.068Z,5.80
2018-04-17T18:34:12.249Z,9.65
2018-04-17T18:36:40.350Z,13.70
2018-04-17T18:39:08.553Z,13.93
2018-04-17T18:41:36.730Z,8.48
2018-04-17T18:44:05.029Z,8.30
2018-04-17T18:46:33.229Z,8.38
2018-04-17T18:49:01.416Z,10.73
2018-04-17T18:51:29.598Z,7.40
2018-04-17T18:53:57.809Z,10.32
2018-04-17T18:56:26.007Z,9.75
2018-04-17T18:58:54.288Z,8.77
2018-04-17T19:01:22.491Z,9.00
2018-04-17T19:03:50.692Z,9.40
2018-04-17T19:06:18.872Z,9.85
2018-04-17T19:08:47.071Z,10.48
2018-04-17T19:11:15.272Z,7.07
2018-04-17T19:13:45.716Z,11.02
2018-04-17T19:16:14.010Z,8.95
2018-04-17T19:18:42.090Z,9.10
2018-04-17T19:21:10.192Z,7.00
2018-04-17T19:23:38.389Z,5.00
2018-04-17T19:26:06.591Z,6.30
2018-04-17T19:28:34.765Z,14.45
2018-04-17T19:31:02.871Z,6.35
2018-04-17T19:33:32.090Z,8.52
2018-04-17T19:36:00.271Z,5.82
2018-04-17T19:38:28.470Z,7.95
2018-04-17T19:40:56.672Z,9.02
2018-04-17T19:43:24.869Z,5.75
2018-04-17T19:45:53.049Z,9.50
2018-04-17T19:48:21.151Z,8.30
2018-04-17T19:50:49.369Z,7.65
2018-04-17T19:53:17.442Z,6.82
2018-04-17T19:55:45.522Z,6.95
2018-04-17T19:58:13.614Z,10.98
2018-04-17T20:00:41.822Z,9.30
2018-04-17T20:03:10.011Z,8.93
2018-04-17T20:05:38.205Z,12.98
2018-04-17T20:08:06.503Z,7.12
2018-04-17T20:10:34.800Z,7.40
2018-04-17T20:13:02.901Z,12.32
2018-04-17T20:15:31.181Z,11.75
2018-04-17T20:17:59.381Z,8.90
2018-04-17T20:20:27.560Z,12.25
2018-04-17T20:22:55.780Z,8.27
2018-04-17T20:25:23.860Z,7.00
2018-04-17T20:27:52.060Z,14.15
2018-04-17T20:30:20.159Z,12.52
2018-04-17T20:32:48.437Z,9.35
2018-04-17T20:35:16.540Z,14.40
2018-04-17T20:37:44.618Z,12.30
2018-04-17T20:40:12.817Z,12.15
2018-04-17T20:42:41.017Z,10.23
2018-04-17T20:45:09.097Z,10.48
2018-04-17T20:47:37.191Z,14.70
2018-04-17T20:50:05.390Z,11.60
2018-04-17T20:52:33.590Z,12.45
2018-04-17T20:55:01.779Z,10.15
2018-04-17T20:57:29.869Z,12.05
2018-04-17T20:59:57.980Z,8.05
2018-04-17T21:02:26.272Z,14.57
2018-04-17T21:04:54.464Z,11.60
2018-04-17T21:07:22.862Z,6.70
2018-04-17T21:09:51.145Z,10.20
2018-04-17T21:12:19.355Z,5.90
2018-04-17T21:14:47.439Z,6.80
2018-04-17T21:17:15.846Z,12.48
2018-04-17T21:19:43.883Z,7.47
2018-04-17T21:22:12.026Z,15.27
2018-04-17T21:24:40.124Z,8.52
2018-04-17T21:27:08.419Z,7.82
2018-04-17T21:29:36.611Z,7.03
2018-04-17T21:32:05.829Z,9.35
2018-04-17T21:34:34.028Z,14.82
2018-04-17T21:37:02.210Z,8.43
2018-04-17T21:39:30.308Z,8.93
2018-04-17T21:41:58.518Z,8.45
2018-04-17T21:44:26.896Z,12.05
2018-04-17T21:46:54.995Z,8.20
2018-04-17T21:49:23.306Z,9.18
2018-04-17T21:51:51.696Z,8.95
2018-04-17T21:54:20.106Z,9.52
2018-04-17T21:56:48.596Z,12.48
2018-04-17T21:59:16.707Z,9.52
2018-04-17T22:01:44.786Z,10.98
2018-04-17T22:04:12.976Z,9.93
2018-04-17T22:06:41.078Z,9.27
2018-04-17T22:09:09.467Z,9.30
2018-04-17T22:11:37.647Z,10.85
2018-04-17T22:14:05.850Z,10.50
2018-04-17T22:16:33.939Z,12.20
2018-04-17T22:19:02.039Z,9.18
2018-04-17T22:21:30.123Z,8.60
2018-04-17T22:23:58.413Z,15.15
2018-04-17T22:26:26.709Z,8.73
2018-04-17T22:28:55.012Z,9.27
2018-04-17T22:31:23.424Z,9.68
2018-04-17T22:33:51.712Z,13.50
2018-04-17T22:36:20.003Z,12.00
2018-04-17T22:38:48.210Z,9.05
2018-04-17T22:41:16.292Z,8.43
2018-04-17T22:43:44.388Z,9.20
2018-04-17T22:46:12.482Z,9.88
2018-04-17T22:48:40.683Z,10.80
2018-04-17T22:51:08.765Z,12.18
2018-04-17T22:53:36.955Z,6.80
2018-04-17T22:56:05.051Z,13.05
2018-04-17T22:58:33.358Z,7.25
2018-04-17T23:01:01.445Z,13.57
2018-04-17T23:03:29.733Z,8.75
2018-04-17T23:05:58.023Z,9.68
2018-04-17T23:08:26.331Z,10.05
2018-04-17T23:10:54.520Z,7.95
2018-04-17T23:13:22.821Z,12.88
2018-04-17T23:15:51.021Z,11.25
2018-04-17T23:18:19.205Z,7.87
2018-04-17T23:20:47.306Z,12.80
2018-04-17T23:23:15.502Z,7.80
2018-04-17T23:25:43.595Z,11.68
2018-04-17T23:28:12.205Z,7.85
2018-04-17T23:30:40.381Z,7.80
2018-04-17T23:33:08.482Z,10.70
2018-04-17T23:35:36.568Z,8.90
2018-04-17T23:38:05.684Z,9.93
2018-04-17T23:40:33.876Z,8.48
2018-04-17T23:43:02.085Z,10.35
2018-04-17T23:45:30.466Z,8.20
2018-04-17T23:47:58.682Z,9.68
2018-04-17T23:50:27.062Z,8.65
2018-04-17T23:52:55.361Z,9.07
2018-04-17T23:55:23.763Z,8.70
2018-04-17T23:57:52.160Z,8.63
